Airport ICAO


14:33 UTC

29°C

Clear skies


An affordable passengers' Moving Map for your aircraft. Made for the iPad and the iPhone
More information here

LFLB Aix Les Bains


Chambery FRANCE   VFR CAVOK


METAR LFLB 231400Z AUTO VRB02KT CAVOK 29/15 Q1018 NOSIG 0h33min

TAF LFLB 231100Z 2312/2412 20005KT 9999 BKN060 BECMG 2316/2318 36008KT TEMPO 2316/2324 VRB15G35KT 4000 SHRA FEW030CB SCT035TCU BKN040 PROB40 TEMPO 2317/2323 2000 TSRA SCT030CB BKN035TCU PROB30 TEMPO 2318/2324 VRB20G45KT BECMG 2406/2408 36015G25KT SCT030 SCT050 3h33min





NOTAMS

OPEN